Etusivu
METAR-TAF:

METAR-TAF

Lentoasemat :

Selebi-Pikwe, Botswana

Leveyspiiri: 22-03-19S, Pituuspiiri: 027-49-13E, korkeus merenpinnasta: 892 m

Tämänhetkinen sää

Tämä raportti tehtiin 1 tunti ja 10 minuuttia sitten, kello 12.00 UTC
Tuuli 6 kn idästä
Lämpötila 28°C
Kosteus 58%
Ilmanpaine 1010 hPa
Näkyvyys 10 km tai enemmän
ei pilviä alle 1500 m:ssä eikä cumulonimbus-pilviä

METAR: FBSP 011200Z 09006KT CAVOK 28/19 Q1010

Aika: 15:10 (13:10 UTC)

Sääennuste

Tämä raportti tehtiin 4 tuntia ja 10 minuuttia sitten, kello 09.00 UTC
Ennuste voimassa 01. päivästä klo 12 UTC - 01. päivään klo 21 UTC
Tuuli 10 kn pohjoisesta
Näkyvyys 10 km tai enemmän
Hajanaisia pilviä 3000 ft:n korkeudessa
Muutamia pilviä 3500 ft:n korkeudessa, Cumulonimbus.

TAF: FBSP 010900Z 0112/0121 35010KT 9999 SCT030 FEW035CB

Säähavainnot ja -ennusteet yli 4000 lentoasemalta (METAR- ja TAF-raportit).

Käytössä olevat sääasemat on merkitty karttaan keltaisilla ja punaisilla pisteillä.

Aseta hiiri pisteen päälle nähdäksesi sääaseman nimen.

Klikkaa sitten nähdäksesi säähavainnot ja -ennusteet.

Kartan vaihtaminen: klikkaa mustalla rastilla varustettuja vihreitä pisteitä, niin voit zoomata sisään; viivalla varustettua vihreää pistettä, niin voit zoomata ulos tai vihreitä nuolia, niin pääset viereisille kartoille.


METAR-TAF: